sensor_id;sensor_type;location;lat;lon;timestamp;P1;durP1;ratioP1;P2;durP2;ratioP2
4616;SDS011;2321;42.704;23.384;2023-08-06T00:01:33;220.30;;;52.50;;
4616;SDS011;2321;42.704;23.384;2023-08-06T00:04:00;206.60;;;50.83;;
4616;SDS011;2321;42.704;23.384;2023-08-06T00:06:28;222.23;;;55.07;;
4616;SDS011;2321;42.704;23.384;2023-08-06T00:08:55;190.50;;;50.00;;
4616;SDS011;2321;42.704;23.384;2023-08-06T00:11:22;179.53;;;44.43;;
4616;SDS011;2321;42.704;23.384;2023-08-06T00:13:49;219.87;;;53.23;;
4616;SDS011;2321;42.704;23.384;2023-08-06T00:16:16;232.17;;;55.73;;
4616;SDS011;2321;42.704;23.384;2023-08-06T00:18:43;207.23;;;52.27;;
4616;SDS011;2321;42.704;23.384;2023-08-06T00:21:10;247.80;;;60.20;;
4616;SDS011;2321;42.704;23.384;2023-08-06T00:23:39;206.47;;;49.13;;
4616;SDS011;2321;42.704;23.384;2023-08-06T00:26:06;212.20;;;50.50;;
4616;SDS011;2321;42.704;23.384;2023-08-06T00:28:33;212.40;;;49.73;;
4616;SDS011;2321;42.704;23.384;2023-08-06T00:31:00;245.47;;;57.70;;
4616;SDS011;2321;42.704;23.384;2023-08-06T00:33:27;200.50;;;51.73;;
4616;SDS011;2321;42.704;23.384;2023-08-06T00:35:54;211.77;;;55.63;;
4616;SDS011;2321;42.704;23.384;2023-08-06T00:38:20;181.17;;;46.40;;
4616;SDS011;2321;42.704;23.384;2023-08-06T00:40:49;198.67;;;50.93;;
4616;SDS011;2321;42.704;23.384;2023-08-06T00:43:16;185.37;;;46.37;;
4616;SDS011;2321;42.704;23.384;2023-08-06T00:45:43;199.97;;;50.37;;
4616;SDS011;2321;42.704;23.384;2023-08-06T00:48:09;203.27;;;53.97;;
4616;SDS011;2321;42.704;23.384;2023-08-06T00:50:36;181.90;;;47.23;;
4616;SDS011;2321;42.704;23.384;2023-08-06T00:53:03;193.13;;;51.50;;
4616;SDS011;2321;42.704;23.384;2023-08-06T00:55:30;185.97;;;48.50;;
4616;SDS011;2321;42.704;23.384;2023-08-06T00:57:58;193.90;;;49.93;;
4616;SDS011;2321;42.704;23.384;2023-08-06T01:00:25;208.40;;;58.70;;
4616;SDS011;2321;42.704;23.384;2023-08-06T01:02:53;214.63;;;61.80;;
4616;SDS011;2321;42.704;23.384;2023-08-06T01:05:20;171.47;;;46.13;;
4616;SDS011;2321;42.704;23.384;2023-08-06T01:07:51;207.73;;;54.57;;
4616;SDS011;2321;42.704;23.384;2023-08-06T01:10:33;232.20;;;59.37;;
4616;SDS011;2321;42.704;23.384;2023-08-06T01:13:15;216.23;;;53.27;;
4616;SDS011;2321;42.704;23.384;2023-08-06T01:15:50;179.13;;;45.13;;
4616;SDS011;2321;42.704;23.384;2023-08-06T01:18:22;204.00;;;51.13;;
4616;SDS011;2321;42.704;23.384;2023-08-06T01:20:50;199.90;;;50.77;;
4616;SDS011;2321;42.704;23.384;2023-08-06T01:23:17;201.90;;;51.97;;
4616;SDS011;2321;42.704;23.384;2023-08-06T01:25:46;200.53;;;50.50;;
4616;SDS011;2321;42.704;23.384;2023-08-06T01:28:22;213.97;;;55.13;;
4616;SDS011;2321;42.704;23.384;2023-08-06T01:30:54;189.40;;;49.37;;
4616;SDS011;2321;42.704;23.384;2023-08-06T01:33:25;203.57;;;54.00;;
4616;SDS011;2321;42.704;23.384;2023-08-06T01:35:55;175.70;;;47.53;;
4616;SDS011;2321;42.704;23.384;2023-08-06T01:38:23;193.23;;;50.40;;
4616;SDS011;2321;42.704;23.384;2023-08-06T01:40:53;195.20;;;51.23;;
4616;SDS011;2321;42.704;23.384;2023-08-06T01:43:20;180.87;;;47.97;;
4616;SDS011;2321;42.704;23.384;2023-08-06T01:45:47;155.83;;;43.80;;
4616;SDS011;2321;42.704;23.384;2023-08-06T01:48:13;182.40;;;49.57;;
4616;SDS011;2321;42.704;23.384;2023-08-06T01:50:40;187.27;;;49.63;;
4616;SDS011;2321;42.704;23.384;2023-08-06T01:53:09;182.50;;;49.10;;
4616;SDS011;2321;42.704;23.384;2023-08-06T01:55:35;180.00;;;47.60;;
4616;SDS011;2321;42.704;23.384;2023-08-06T01:58:02;206.33;;;58.23;;
4616;SDS011;2321;42.704;23.384;2023-08-06T02:00:29;177.27;;;47.47;;
4616;SDS011;2321;42.704;23.384;2023-08-06T02:02:56;196.47;;;56.37;;
4616;SDS011;2321;42.704;23.384;2023-08-06T02:05:23;206.00;;;59.17;;
4616;SDS011;2321;42.704;23.384;2023-08-06T02:07:50;218.00;;;61.60;;
4616;SDS011;2321;42.704;23.384;2023-08-06T02:10:18;190.80;;;55.10;;
4616;SDS011;2321;42.704;23.384;2023-08-06T02:12:45;196.13;;;54.97;;
4616;SDS011;2321;42.704;23.384;2023-08-06T02:15:12;193.53;;;56.70;;
4616;SDS011;2321;42.704;23.384;2023-08-06T02:17:38;182.67;;;53.83;;
4616;SDS011;2321;42.704;23.384;2023-08-06T02:20:06;180.40;;;55.03;;
4616;SDS011;2321;42.704;23.384;2023-08-06T02:22:33;178.07;;;55.20;;
4616;SDS011;2321;42.704;23.384;2023-08-06T02:25:00;158.60;;;53.97;;
4616;SDS011;2321;42.704;23.384;2023-08-06T02:27:28;170.13;;;53.53;;
4616;SDS011;2321;42.704;23.384;2023-08-06T02:29:55;167.20;;;52.40;;
4616;SDS011;2321;42.704;23.384;2023-08-06T02:32:22;171.60;;;54.33;;
4616;SDS011;2321;42.704;23.384;2023-08-06T02:34:49;161.20;;;51.53;;
4616;SDS011;2321;42.704;23.384;2023-08-06T02:37:16;186.83;;;54.50;;
4616;SDS011;2321;42.704;23.384;2023-08-06T02:39:43;213.10;;;61.27;;
4616;SDS011;2321;42.704;23.384;2023-08-06T02:42:10;196.60;;;55.97;;
4616;SDS011;2321;42.704;23.384;2023-08-06T02:44:38;205.27;;;59.73;;
4616;SDS011;2321;42.704;23.384;2023-08-06T02:47:05;206.83;;;59.40;;
4616;SDS011;2321;42.704;23.384;2023-08-06T02:49:32;218.47;;;64.60;;
4616;SDS011;2321;42.704;23.384;2023-08-06T02:51:59;200.30;;;56.20;;
4616;SDS011;2321;42.704;23.384;2023-08-06T02:54:26;183.13;;;53.70;;
4616;SDS011;2321;42.704;23.384;2023-08-06T02:56:53;198.73;;;58.13;;
4616;SDS011;2321;42.704;23.384;2023-08-06T02:59:20;189.20;;;55.67;;
4616;SDS011;2321;42.704;23.384;2023-08-06T03:01:48;209.67;;;57.40;;
4616;SDS011;2321;42.704;23.384;2023-08-06T03:04:15;214.73;;;58.70;;
4616;SDS011;2321;42.704;23.384;2023-08-06T03:06:43;213.43;;;58.70;;
4616;SDS011;2321;42.704;23.384;2023-08-06T03:09:10;164.50;;;45.03;;
4616;SDS011;2321;42.704;23.384;2023-08-06T03:11:37;202.37;;;55.60;;
4616;SDS011;2321;42.704;23.384;2023-08-06T03:14:04;186.20;;;52.10;;
4616;SDS011;2321;42.704;23.384;2023-08-06T03:16:30;209.83;;;58.90;;
4616;SDS011;2321;42.704;23.384;2023-08-06T03:18:59;179.67;;;47.40;;
4616;SDS011;2321;42.704;23.384;2023-08-06T03:21:26;203.20;;;52.33;;
4616;SDS011;2321;42.704;23.384;2023-08-06T03:23:53;201.70;;;52.13;;
4616;SDS011;2321;42.704;23.384;2023-08-06T03:26:20;209.47;;;53.37;;
4616;SDS011;2321;42.704;23.384;2023-08-06T03:28:47;192.00;;;47.63;;
4616;SDS011;2321;42.704;23.384;2023-08-06T03:31:13;220.43;;;56.87;;
4616;SDS011;2321;42.704;23.384;2023-08-06T03:33:40;209.73;;;60.80;;
4616;SDS011;2321;42.704;23.384;2023-08-06T03:36:09;174.67;;;48.53;;
4616;SDS011;2321;42.704;23.384;2023-08-06T03:38:35;225.13;;;60.37;;
4616;SDS011;2321;42.704;23.384;2023-08-06T03:41:02;220.33;;;60.83;;
4616;SDS011;2321;42.704;23.384;2023-08-06T03:43:29;213.60;;;59.33;;
4616;SDS011;2321;42.704;23.384;2023-08-06T03:45:56;210.50;;;55.70;;
4616;SDS011;2321;42.704;23.384;2023-08-06T03:48:23;187.77;;;48.83;;
4616;SDS011;2321;42.704;23.384;2023-08-06T03:50:50;212.73;;;55.23;;
4616;SDS011;2321;42.704;23.384;2023-08-06T03:53:18;208.53;;;51.23;;
4616;SDS011;2321;42.704;23.384;2023-08-06T03:55:45;237.17;;;59.47;;
4616;SDS011;2321;42.704;23.384;2023-08-06T03:58:11;214.13;;;55.80;;
4616;SDS011;2321;42.704;23.384;2023-08-06T04:00:38;229.27;;;53.03;;
4616;SDS011;2321;42.704;23.384;2023-08-06T04:03:05;215.87;;;53.43;;
4616;SDS011;2321;42.704;23.384;2023-08-06T04:05:32;239.23;;;58.60;;
4616;SDS011;2321;42.704;23.384;2023-08-06T04:07:59;216.20;;;51.00;;
4616;SDS011;2321;42.704;23.384;2023-08-06T04:10:27;218.83;;;54.10;;
4616;SDS011;2321;42.704;23.384;2023-08-06T04:12:54;212.63;;;53.57;;
4616;SDS011;2321;42.704;23.384;2023-08-06T04:15:21;195.23;;;48.77;;
4616;SDS011;2321;42.704;23.384;2023-08-06T04:17:48;215.83;;;54.67;;
4616;SDS011;2321;42.704;23.384;2023-08-06T04:20:15;203.87;;;52.03;;
4616;SDS011;2321;42.704;23.384;2023-08-06T04:22:41;188.47;;;47.47;;
4616;SDS011;2321;42.704;23.384;2023-08-06T04:25:09;216.27;;;55.43;;
4616;SDS011;2321;42.704;23.384;2023-08-06T04:27:37;218.90;;;53.67;;
4616;SDS011;2321;42.704;23.384;2023-08-06T04:30:07;192.23;;;51.17;;
4616;SDS011;2321;42.704;23.384;2023-08-06T04:32:34;172.53;;;47.10;;
4616;SDS011;2321;42.704;23.384;2023-08-06T04:35:01;206.03;;;55.63;;
4616;SDS011;2321;42.704;23.384;2023-08-06T04:37:28;206.53;;;57.60;;
4616;SDS011;2321;42.704;23.384;2023-08-06T04:39:55;168.07;;;46.07;;
4616;SDS011;2321;42.704;23.384;2023-08-06T04:42:21;233.77;;;63.53;;
4616;SDS011;2321;42.704;23.384;2023-08-06T04:44:50;184.37;;;46.53;;
4616;SDS011;2321;42.704;23.384;2023-08-06T04:47:17;207.77;;;51.33;;
4616;SDS011;2321;42.704;23.384;2023-08-06T04:49:44;224.83;;;55.57;;
4616;SDS011;2321;42.704;23.384;2023-08-06T04:52:10;239.20;;;58.43;;
4616;SDS011;2321;42.704;23.384;2023-08-06T04:54:37;244.17;;;59.93;;
4616;SDS011;2321;42.704;23.384;2023-08-06T04:57:04;205.33;;;50.00;;
4616;SDS011;2321;42.704;23.384;2023-08-06T04:59:31;213.80;;;52.73;;
4616;SDS011;2321;42.704;23.384;2023-08-06T05:02:00;208.20;;;50.33;;
4616;SDS011;2321;42.704;23.384;2023-08-06T05:04:27;254.57;;;62.13;;
4616;SDS011;2321;42.704;23.384;2023-08-06T05:06:54;200.70;;;47.80;;
4616;SDS011;2321;42.704;23.384;2023-08-06T05:09:20;230.63;;;54.57;;
4616;SDS011;2321;42.704;23.384;2023-08-06T05:11:47;238.60;;;57.97;;
4616;SDS011;2321;42.704;23.384;2023-08-06T05:14:15;220.20;;;52.13;;
4616;SDS011;2321;42.704;23.384;2023-08-06T05:16:42;227.07;;;52.70;;
4616;SDS011;2321;42.704;23.384;2023-08-06T05:19:10;230.50;;;54.67;;
4616;SDS011;2321;42.704;23.384;2023-08-06T05:21:37;221.37;;;51.03;;
4616;SDS011;2321;42.704;23.384;2023-08-06T05:24:04;219.97;;;52.20;;
4616;SDS011;2321;42.704;23.384;2023-08-06T05:26:31;227.97;;;54.47;;
4616;SDS011;2321;42.704;23.384;2023-08-06T05:28:58;233.20;;;55.13;;
4616;SDS011;2321;42.704;23.384;2023-08-06T05:31:25;209.57;;;48.67;;
4616;SDS011;2321;42.704;23.384;2023-08-06T05:33:54;202.20;;;47.40;;
4616;SDS011;2321;42.704;23.384;2023-08-06T05:36:22;228.57;;;54.47;;
4616;SDS011;2321;42.704;23.384;2023-08-06T05:38:49;221.83;;;52.63;;
4616;SDS011;2321;42.704;23.384;2023-08-06T05:41:16;256.47;;;62.40;;
4616;SDS011;2321;42.704;23.384;2023-08-06T05:43:43;245.33;;;60.70;;
4616;SDS011;2321;42.704;23.384;2023-08-06T05:46:10;229.97;;;57.07;;
4616;SDS011;2321;42.704;23.384;2023-08-06T05:48:36;211.00;;;53.27;;
4616;SDS011;2321;42.704;23.384;2023-08-06T05:51:03;214.60;;;52.33;;
4616;SDS011;2321;42.704;23.384;2023-08-06T05:53:32;231.13;;;58.33;;
4616;SDS011;2321;42.704;23.384;2023-08-06T05:55:58;230.67;;;57.37;;
4616;SDS011;2321;42.704;23.384;2023-08-06T05:58:25;225.77;;;55.47;;
4616;SDS011;2321;42.704;23.384;2023-08-06T06:00:54;213.77;;;53.60;;
4616;SDS011;2321;42.704;23.384;2023-08-06T06:03:21;242.93;;;59.87;;
4616;SDS011;2321;42.704;23.384;2023-08-06T06:05:48;206.10;;;52.23;;
4616;SDS011;2321;42.704;23.384;2023-08-06T06:08:15;201.70;;;50.37;;
4616;SDS011;2321;42.704;23.384;2023-08-06T06:10:43;197.80;;;47.70;;
4616;SDS011;2321;42.704;23.384;2023-08-06T06:13:10;218.07;;;52.77;;
4616;SDS011;2321;42.704;23.384;2023-08-06T06:15:37;235.77;;;57.07;;
4616;SDS011;2321;42.704;23.384;2023-08-06T06:18:04;233.37;;;56.97;;
4616;SDS011;2321;42.704;23.384;2023-08-06T06:20:31;194.17;;;47.37;;
4616;SDS011;2321;42.704;23.384;2023-08-06T06:22:58;264.07;;;65.67;;
4616;SDS011;2321;42.704;23.384;2023-08-06T06:25:25;222.57;;;52.57;;
4616;SDS011;2321;42.704;23.384;2023-08-06T06:27:53;217.03;;;51.73;;
4616;SDS011;2321;42.704;23.384;2023-08-06T06:30:20;221.97;;;50.67;;
4616;SDS011;2321;42.704;23.384;2023-08-06T06:32:47;219.10;;;55.57;;
4616;SDS011;2321;42.704;23.384;2023-08-06T06:35:14;228.00;;;54.00;;
4616;SDS011;2321;42.704;23.384;2023-08-06T06:37:41;250.60;;;61.63;;
4616;SDS011;2321;42.704;23.384;2023-08-06T06:40:08;205.40;;;50.67;;
4616;SDS011;2321;42.704;23.384;2023-08-06T06:42:35;220.77;;;54.13;;
4616;SDS011;2321;42.704;23.384;2023-08-06T06:45:04;196.67;;;48.70;;
4616;SDS011;2321;42.704;23.384;2023-08-06T06:47:31;179.23;;;45.17;;
4616;SDS011;2321;42.704;23.384;2023-08-06T06:49:58;237.50;;;57.93;;
4616;SDS011;2321;42.704;23.384;2023-08-06T06:52:25;207.40;;;51.90;;
4616;SDS011;2321;42.704;23.384;2023-08-06T06:54:52;182.90;;;46.33;;
4616;SDS011;2321;42.704;23.384;2023-08-06T06:57:18;244.27;;;61.47;;
4616;SDS011;2321;42.704;23.384;2023-08-06T06:59:45;212.83;;;53.00;;
4616;SDS011;2321;42.704;23.384;2023-08-06T07:02:13;200.37;;;50.03;;
4616;SDS011;2321;42.704;23.384;2023-08-06T07:04:40;230.47;;;56.47;;
4616;SDS011;2321;42.704;23.384;2023-08-06T07:07:07;194.43;;;48.53;;
4616;SDS011;2321;42.704;23.384;2023-08-06T07:09:35;211.47;;;53.63;;
4616;SDS011;2321;42.704;23.384;2023-08-06T07:12:02;217.17;;;55.73;;
4616;SDS011;2321;42.704;23.384;2023-08-06T07:14:29;206.73;;;51.93;;
4616;SDS011;2321;42.704;23.384;2023-08-06T07:16:56;229.07;;;58.90;;
4616;SDS011;2321;42.704;23.384;2023-08-06T07:19:24;219.77;;;55.13;;
4616;SDS011;2321;42.704;23.384;2023-08-06T07:21:51;184.97;;;47.23;;
4616;SDS011;2321;42.704;23.384;2023-08-06T07:24:18;205.97;;;53.17;;
4616;SDS011;2321;42.704;23.384;2023-08-06T07:26:45;199.70;;;50.57;;
4616;SDS011;2321;42.704;23.384;2023-08-06T07:29:14;203.37;;;50.43;;
4616;SDS011;2321;42.704;23.384;2023-08-06T07:31:44;193.33;;;51.63;;
4616;SDS011;2321;42.704;23.384;2023-08-06T07:34:11;206.73;;;51.90;;
4616;SDS011;2321;42.704;23.384;2023-08-06T07:36:40;190.47;;;55.50;;
4616;SDS011;2321;42.704;23.384;2023-08-06T07:39:09;160.07;;;40.57;;
4616;SDS011;2321;42.704;23.384;2023-08-06T07:41:36;172.60;;;45.20;;
4616;SDS011;2321;42.704;23.384;2023-08-06T07:44:03;164.90;;;43.20;;
4616;SDS011;2321;42.704;23.384;2023-08-06T07:46:30;163.17;;;42.43;;
4616;SDS011;2321;42.704;23.384;2023-08-06T07:48:58;192.47;;;49.07;;
4616;SDS011;2321;42.704;23.384;2023-08-06T07:51:24;184.70;;;46.10;;
4616;SDS011;2321;42.704;23.384;2023-08-06T07:53:53;163.93;;;38.97;;
4616;SDS011;2321;42.704;23.384;2023-08-06T07:56:20;211.40;;;52.70;;
4616;SDS011;2321;42.704;23.384;2023-08-06T07:58:46;169.27;;;46.23;;
4616;SDS011;2321;42.704;23.384;2023-08-06T08:01:13;165.97;;;43.13;;
4616;SDS011;2321;42.704;23.384;2023-08-06T08:03:40;200.50;;;54.90;;
4616;SDS011;2321;42.704;23.384;2023-08-06T08:06:07;187.13;;;54.03;;
4616;SDS011;2321;42.704;23.384;2023-08-06T08:08:34;191.03;;;55.03;;
4616;SDS011;2321;42.704;23.384;2023-08-06T08:11:05;170.60;;;54.67;;
4616;SDS011;2321;42.704;23.384;2023-08-06T08:13:32;184.30;;;54.27;;
4616;SDS011;2321;42.704;23.384;2023-08-06T08:15:59;167.53;;;52.30;;
4616;SDS011;2321;42.704;23.384;2023-08-06T08:18:27;178.07;;;54.80;;
4616;SDS011;2321;42.704;23.384;2023-08-06T08:20:55;179.17;;;52.20;;
4616;SDS011;2321;42.704;23.384;2023-08-06T08:23:22;212.63;;;57.90;;
4616;SDS011;2321;42.704;23.384;2023-08-06T08:26:00;178.30;;;46.77;;
4616;SDS011;2321;42.704;23.384;2023-08-06T08:28:32;204.00;;;50.63;;
4616;SDS011;2321;42.704;23.384;2023-08-06T08:30:59;199.20;;;51.17;;
4616;SDS011;2321;42.704;23.384;2023-08-06T08:33:29;200.30;;;50.57;;
4616;SDS011;2321;42.704;23.384;2023-08-06T08:35:58;189.43;;;48.13;;
4616;SDS011;2321;42.704;23.384;2023-08-06T08:38:25;215.47;;;55.60;;
4616;SDS011;2321;42.704;23.384;2023-08-06T08:41:04;237.43;;;61.93;;
4616;SDS011;2321;42.704;23.384;2023-08-06T08:43:41;195.50;;;51.67;;
4616;SDS011;2321;42.704;23.384;2023-08-06T08:46:11;218.10;;;57.30;;
4616;SDS011;2321;42.704;23.384;2023-08-06T08:48:40;182.03;;;49.47;;
4616;SDS011;2321;42.704;23.384;2023-08-06T08:51:07;179.20;;;47.93;;
4616;SDS011;2321;42.704;23.384;2023-08-06T08:53:35;187.40;;;52.50;;
4616;SDS011;2321;42.704;23.384;2023-08-06T08:56:04;194.20;;;53.97;;
4616;SDS011;2321;42.704;23.384;2023-08-06T08:58:32;201.40;;;57.13;;
4616;SDS011;2321;42.704;23.384;2023-08-06T09:01:00;186.70;;;51.27;;
4616;SDS011;2321;42.704;23.384;2023-08-06T09:03:28;196.10;;;59.80;;
4616;SDS011;2321;42.704;23.384;2023-08-06T09:05:57;211.57;;;63.37;;
4616;SDS011;2321;42.704;23.384;2023-08-06T09:08:27;205.70;;;57.57;;
4616;SDS011;2321;42.704;23.384;2023-08-06T09:11:00;219.47;;;58.77;;
4616;SDS011;2321;42.704;23.384;2023-08-06T09:13:29;212.63;;;57.10;;
4616;SDS011;2321;42.704;23.384;2023-08-06T09:16:00;199.37;;;55.23;;
4616;SDS011;2321;42.704;23.384;2023-08-06T09:18:26;195.27;;;54.13;;
4616;SDS011;2321;42.704;23.384;2023-08-06T09:20:54;201.03;;;56.17;;
4616;SDS011;2321;42.704;23.384;2023-08-06T09:23:20;202.10;;;58.23;;
4616;SDS011;2321;42.704;23.384;2023-08-06T09:25:56;220.13;;;59.57;;
4616;SDS011;2321;42.704;23.384;2023-08-06T09:28:23;202.90;;;55.73;;
4616;SDS011;2321;42.704;23.384;2023-08-06T09:30:50;177.97;;;49.93;;
4616;SDS011;2321;42.704;23.384;2023-08-06T09:33:21;185.30;;;51.53;;
4616;SDS011;2321;42.704;23.384;2023-08-06T09:35:49;175.63;;;48.73;;
4616;SDS011;2321;42.704;23.384;2023-08-06T09:38:16;191.83;;;53.87;;
4616;SDS011;2321;42.704;23.384;2023-08-06T09:40:43;208.20;;;58.87;;
4616;SDS011;2321;42.704;23.384;2023-08-06T09:43:10;182.90;;;50.57;;
4616;SDS011;2321;42.704;23.384;2023-08-06T09:45:38;222.27;;;61.70;;
4616;SDS011;2321;42.704;23.384;2023-08-06T09:48:05;201.53;;;56.10;;
4616;SDS011;2321;42.704;23.384;2023-08-06T09:50:35;170.17;;;45.47;;
4616;SDS011;2321;42.704;23.384;2023-08-06T09:53:03;187.17;;;56.23;;
4616;SDS011;2321;42.704;23.384;2023-08-06T09:55:31;193.30;;;56.60;;
4616;SDS011;2321;42.704;23.384;2023-08-06T09:57:59;205.53;;;58.70;;
4616;SDS011;2321;42.704;23.384;2023-08-06T10:00:27;186.70;;;51.03;;
4616;SDS011;2321;42.704;23.384;2023-08-06T10:02:55;228.20;;;60.83;;
4616;SDS011;2321;42.704;23.384;2023-08-06T10:05:26;174.27;;;47.70;;
4616;SDS011;2321;42.704;23.384;2023-08-06T10:07:55;211.23;;;58.00;;
4616;SDS011;2321;42.704;23.384;2023-08-06T10:10:23;171.93;;;47.37;;
4616;SDS011;2321;42.704;23.384;2023-08-06T10:12:54;179.47;;;49.93;;
4616;SDS011;2321;42.704;23.384;2023-08-06T10:15:24;170.40;;;48.90;;
4616;SDS011;2321;42.704;23.384;2023-08-06T10:17:54;187.17;;;55.87;;
4616;SDS011;2321;42.704;23.384;2023-08-06T10:20:23;209.93;;;58.93;;
4616;SDS011;2321;42.704;23.384;2023-08-06T10:23:02;189.67;;;51.17;;
4616;SDS011;2321;42.704;23.384;2023-08-06T10:25:32;191.23;;;50.10;;
4616;SDS011;2321;42.704;23.384;2023-08-06T10:28:00;182.20;;;47.67;;
4616;SDS011;2321;42.704;23.384;2023-08-06T10:30:33;184.70;;;51.90;;
4616;SDS011;2321;42.704;23.384;2023-08-06T10:33:01;197.63;;;52.83;;
4616;SDS011;2321;42.704;23.384;2023-08-06T10:35:30;233.97;;;61.10;;
4616;SDS011;2321;42.704;23.384;2023-08-06T10:37:59;224.47;;;56.73;;
4616;SDS011;2321;42.704;23.384;2023-08-06T10:40:28;196.50;;;49.20;;
4616;SDS011;2321;42.704;23.384;2023-08-06T10:42:58;192.70;;;49.03;;
4616;SDS011;2321;42.704;23.384;2023-08-06T10:45:25;197.60;;;49.40;;
4616;SDS011;2321;42.704;23.384;2023-08-06T10:47:54;201.83;;;50.90;;
4616;SDS011;2321;42.704;23.384;2023-08-06T10:50:21;188.23;;;48.00;;
4616;SDS011;2321;42.704;23.384;2023-08-06T10:52:49;189.37;;;49.87;;
4616;SDS011;2321;42.704;23.384;2023-08-06T10:55:22;168.30;;;43.80;;
4616;SDS011;2321;42.704;23.384;2023-08-06T10:57:51;172.53;;;45.33;;
4616;SDS011;2321;42.704;23.384;2023-08-06T11:00:20;201.23;;;53.80;;
4616;SDS011;2321;42.704;23.384;2023-08-06T11:02:47;201.20;;;54.07;;
4616;SDS011;2321;42.704;23.384;2023-08-06T11:05:15;185.03;;;49.43;;
4616;SDS011;2321;42.704;23.384;2023-08-06T11:07:42;214.43;;;57.80;;
4616;SDS011;2321;42.704;23.384;2023-08-06T11:10:10;212.73;;;57.40;;
4616;SDS011;2321;42.704;23.384;2023-08-06T11:12:38;214.60;;;57.67;;
4616;SDS011;2321;42.704;23.384;2023-08-06T11:15:07;168.47;;;45.03;;
4616;SDS011;2321;42.704;23.384;2023-08-06T11:17:36;169.13;;;44.70;;
4616;SDS011;2321;42.704;23.384;2023-08-06T11:20:05;223.43;;;59.17;;
4616;SDS011;2321;42.704;23.384;2023-08-06T11:22:33;165.50;;;44.40;;
4616;SDS011;2321;42.704;23.384;2023-08-06T11:25:00;204.00;;;54.97;;
4616;SDS011;2321;42.704;23.384;2023-08-06T11:27:27;175.77;;;45.37;;
4616;SDS011;2321;42.704;23.384;2023-08-06T11:29:54;177.47;;;46.80;;
4616;SDS011;2321;42.704;23.384;2023-08-06T11:32:22;173.97;;;46.30;;
4616;SDS011;2321;42.704;23.384;2023-08-06T11:34:49;166.43;;;44.13;;
4616;SDS011;2321;42.704;23.384;2023-08-06T11:37:16;169.53;;;45.03;;
4616;SDS011;2321;42.704;23.384;2023-08-06T11:39:48;180.83;;;46.93;;
4616;SDS011;2321;42.704;23.384;2023-08-06T11:42:15;166.57;;;44.70;;
4616;SDS011;2321;42.704;23.384;2023-08-06T11:44:42;189.83;;;46.00;;
4616;SDS011;2321;42.704;23.384;2023-08-06T11:47:12;232.73;;;52.87;;
4616;SDS011;2321;42.704;23.384;2023-08-06T11:49:42;234.17;;;51.13;;
4616;SDS011;2321;42.704;23.384;2023-08-06T11:52:12;243.10;;;52.13;;
4616;SDS011;2321;42.704;23.384;2023-08-06T11:54:40;194.80;;;47.60;;
4616;SDS011;2321;42.704;23.384;2023-08-06T11:57:07;210.17;;;48.60;;
4616;SDS011;2321;42.704;23.384;2023-08-06T11:59:34;207.97;;;48.57;;
4616;SDS011;2321;42.704;23.384;2023-08-06T12:02:03;78.77;;;18.13;;
4616;SDS011;2321;42.704;23.384;2023-08-06T12:04:31;54.00;;;14.00;;
4616;SDS011;2321;42.704;23.384;2023-08-06T12:07:18;17.67;;;8.30;;
4616;SDS011;2321;42.704;23.384;2023-08-06T12:09:45;11.93;;;6.23;;
4616;SDS011;2321;42.704;23.384;2023-08-06T12:12:12;10.43;;;5.40;;
4616;SDS011;2321;42.704;23.384;2023-08-06T12:14:39;10.57;;;5.77;;
4616;SDS011;2321;42.704;23.384;2023-08-06T12:17:06;14.93;;;7.10;;
4616;SDS011;2321;42.704;23.384;2023-08-06T12:19:32;7.87;;;5.13;;
4616;SDS011;2321;42.704;23.384;2023-08-06T12:21:59;13.80;;;6.80;;
4616;SDS011;2321;42.704;23.384;2023-08-06T12:24:27;6.70;;;4.63;;
4616;SDS011;2321;42.704;23.384;2023-08-06T12:26:56;9.10;;;4.67;;
4616;SDS011;2321;42.704;23.384;2023-08-06T12:29:24;9.97;;;6.47;;
4616;SDS011;2321;42.704;23.384;2023-08-06T12:31:51;6.40;;;4.10;;
4616;SDS011;2321;42.704;23.384;2023-08-06T12:34:18;6.67;;;4.80;;
4616;SDS011;2321;42.704;23.384;2023-08-06T12:36:45;13.40;;;6.63;;
4616;SDS011;2321;42.704;23.384;2023-08-06T12:39:12;32.50;;;9.67;;
4616;SDS011;2321;42.704;23.384;2023-08-06T12:41:40;39.50;;;9.53;;
4616;SDS011;2321;42.704;23.384;2023-08-06T12:44:08;18.97;;;7.07;;
4616;SDS011;2321;42.704;23.384;2023-08-06T12:46:35;10.07;;;5.23;;
4616;SDS011;2321;42.704;23.384;2023-08-06T12:49:02;8.33;;;5.17;;
4616;SDS011;2321;42.704;23.384;2023-08-06T12:51:32;14.40;;;6.03;;
4616;SDS011;2321;42.704;23.384;2023-08-06T12:54:00;6.20;;;4.63;;
4616;SDS011;2321;42.704;23.384;2023-08-06T12:56:29;6.67;;;4.83;;
4616;SDS011;2321;42.704;23.384;2023-08-06T12:58:57;8.73;;;5.17;;
4616;SDS011;2321;42.704;23.384;2023-08-06T13:01:24;9.07;;;4.63;;
4616;SDS011;2321;42.704;23.384;2023-08-06T13:03:51;9.77;;;5.30;;
4616;SDS011;2321;42.704;23.384;2023-08-06T13:06:18;16.03;;;6.13;;
4616;SDS011;2321;42.704;23.384;2023-08-06T13:08:45;14.13;;;5.77;;
4616;SDS011;2321;42.704;23.384;2023-08-06T13:11:12;12.30;;;5.77;;
4616;SDS011;2321;42.704;23.384;2023-08-06T13:13:39;7.80;;;4.20;;
4616;SDS011;2321;42.704;23.384;2023-08-06T13:16:07;11.13;;;4.90;;
4616;SDS011;2321;42.704;23.384;2023-08-06T13:18:34;10.77;;;6.40;;
4616;SDS011;2321;42.704;23.384;2023-08-06T13:21:01;10.63;;;5.53;;
4616;SDS011;2321;42.704;23.384;2023-08-06T13:23:28;10.30;;;4.93;;
4616;SDS011;2321;42.704;23.384;2023-08-06T13:25:55;7.40;;;3.73;;
4616;SDS011;2321;42.704;23.384;2023-08-06T13:28:22;33.70;;;9.67;;
4616;SDS011;2321;42.704;23.384;2023-08-06T13:30:48;35.87;;;9.50;;
4616;SDS011;2321;42.704;23.384;2023-08-06T13:33:17;69.20;;;17.40;;
4616;SDS011;2321;42.704;23.384;2023-08-06T13:35:44;61.90;;;14.80;;
4616;SDS011;2321;42.704;23.384;2023-08-06T13:38:10;232.60;;;49.73;;
4616;SDS011;2321;42.704;23.384;2023-08-06T13:40:37;91.73;;;20.37;;
4616;SDS011;2321;42.704;23.384;2023-08-06T13:43:05;217.93;;;48.40;;
4616;SDS011;2321;42.704;23.384;2023-08-06T13:45:32;224.70;;;48.93;;
4616;SDS011;2321;42.704;23.384;2023-08-06T13:48:00;234.07;;;49.83;;
4616;SDS011;2321;42.704;23.384;2023-08-06T13:50:28;232.23;;;49.87;;
4616;SDS011;2321;42.704;23.384;2023-08-06T13:52:55;240.57;;;51.63;;
4616;SDS011;2321;42.704;23.384;2023-08-06T13:55:22;225.07;;;48.70;;
4616;SDS011;2321;42.704;23.384;2023-08-06T13:57:49;225.37;;;48.83;;
4616;SDS011;2321;42.704;23.384;2023-08-06T14:00:16;229.60;;;51.30;;
4616;SDS011;2321;42.704;23.384;2023-08-06T14:02:44;230.70;;;50.87;;
4616;SDS011;2321;42.704;23.384;2023-08-06T14:05:11;248.47;;;55.53;;
4616;SDS011;2321;42.704;23.384;2023-08-06T14:07:39;242.90;;;53.63;;
4616;SDS011;2321;42.704;23.384;2023-08-06T14:10:06;220.57;;;50.23;;
4616;SDS011;2321;42.704;23.384;2023-08-06T14:12:34;233.10;;;53.60;;
4616;SDS011;2321;42.704;23.384;2023-08-06T14:15:01;225.07;;;50.43;;
4616;SDS011;2321;42.704;23.384;2023-08-06T14:17:29;231.17;;;52.73;;
4616;SDS011;2321;42.704;23.384;2023-08-06T14:19:56;230.20;;;50.00;;
4616;SDS011;2321;42.704;23.384;2023-08-06T14:22:23;232.20;;;51.77;;
4616;SDS011;2321;42.704;23.384;2023-08-06T14:24:51;224.80;;;49.37;;
4616;SDS011;2321;42.704;23.384;2023-08-06T14:27:18;220.53;;;49.23;;
4616;SDS011;2321;42.704;23.384;2023-08-06T14:29:45;213.10;;;48.47;;